Time;durP1;ratioP1;P1;durP2;ratioP2;P2;SDS_P1;SDS_P2;PMS_P1;PMS_P2;Temp;Humidity;BMP_temperature;BMP_pressure;BME280_temperature;BME280_humidity;BME280_pressure;Samples;Min_cycle;Max_cycle;Signal;HPM_P1;HPM_P2
2023/03/21 00:01:28;;;;;;;16.93;15.23;;;;;;;8.32;94.21;100559.53;4999483;28;20228;-82
2023/03/21 00:03:55;;;;;;;16.83;15.27;;;;;;;8.32;95.05;100539.63;4998849;28;20207;-82
2023/03/21 00:06:22;;;;;;;15.57;14.07;;;;;;;8.47;94.44;100541.25;4999694;28;20218;-81
2023/03/21 00:08:48;;;;;;;16.10;14.70;;;;;;;8.51;94.68;100542.94;4999509;28;20255;-80
2023/03/21 00:11:15;;;;;;;16.27;14.77;;;;;;;8.51;94.92;100534.28;4999255;28;20246;-81
2023/03/21 00:13:42;;;;;;;16.90;15.33;;;;;;;8.40;95.02;100543.88;4984592;28;20208;-82
2023/03/21 00:16:14;;;;;;;20.93;15.07;;;;;;;8.47;95.27;100522.19;4980643;28;20587;-81
2023/03/21 00:18:41;;;;;;;16.33;14.93;;;;;;;8.45;95.37;100535.19;4980012;28;20236;-82
2023/03/21 00:21:12;;;;;;;16.57;14.87;;;;;;;8.40;95.74;100523.91;4980316;28;20239;-81
2023/03/21 00:23:38;;;;;;;15.63;14.03;;;;;;;8.29;96.23;100516.22;4979999;28;20682;-82
2023/03/21 00:26:05;;;;;;;16.77;15.27;;;;;;;8.26;96.71;100503.22;4980732;28;20208;-82
2023/03/21 00:28:31;;;;;;;17.30;15.70;;;;;;;8.27;96.51;100509.31;4981478;28;20204;-82
2023/03/21 00:30:58;;;;;;;16.23;14.70;;;;;;;8.26;96.99;100499.78;4999170;28;20303;-82
2023/03/21 00:33:25;;;;;;;16.67;14.97;;;;;;;8.07;97.65;100491.28;4998920;28;20214;-82
2023/03/21 00:35:52;;;;;;;17.03;15.60;;;;;;;8.20;98.12;100479.03;4997909;28;20235;-82
2023/03/21 00:38:20;;;;;;;17.07;15.57;;;;;;;8.30;97.20;100484.13;4998074;28;20295;-82
2023/03/21 00:40:47;;;;;;;17.47;14.03;;;;;;;8.31;97.38;100485.00;4999010;28;20227;-81
2023/03/21 00:43:16;;;;;;;15.60;14.20;;;;;;;8.23;97.74;100487.66;4998772;28;20207;-82
2023/03/21 00:45:42;;;;;;;15.93;14.53;;;;;;;8.21;98.05;100483.38;4999765;28;20579;-82
2023/03/21 00:48:09;;;;;;;15.13;13.83;;;;;;;8.38;97.24;100480.59;4999329;28;20243;-82
2023/03/21 00:50:36;;;;;;;15.93;14.33;;;;;;;8.24;96.79;100494.59;4995868;28;20220;-82
2023/03/21 00:53:02;;;;;;;15.83;14.53;;;;;;;8.37;97.25;100499.69;4960784;29;20667;-82
2023/03/21 00:55:30;;;;;;;14.83;13.53;;;;;;;8.42;97.07;100503.13;4960252;28;20246;-82
2023/03/21 00:57:57;;;;;;;14.43;12.97;;;;;;;8.52;96.87;100500.47;4960615;28;20205;-82
2023/03/21 01:00:23;;;;;;;15.00;13.73;;;;;;;8.51;96.93;100508.25;4960137;28;20233;-83
2023/03/21 01:02:56;;;;;;;13.53;12.43;;;;;;;8.46;97.05;100499.63;4959993;28;20251;-80
2023/03/21 01:06:02;;;;;;;14.30;13.10;;;;;;;8.27;97.17;100498.91;4960173;28;20452;-82
2023/03/21 01:08:11;;;;;;;14.17;12.97;;;;;;;8.24;98.40;100467.72;4973640;28;20271;-82
2023/03/21 01:10:40;;;;;;;15.17;13.87;;;;;;;8.32;98.24;100474.59;4999381;28;20242;-82
2023/03/21 01:13:07;;;;;;;15.47;14.07;;;;;;;8.17;99.37;100459.13;4998963;28;20294;-82
2023/03/21 01:15:33;;;;;;;14.77;13.27;;;;;;;8.22;98.55;100457.31;4999156;28;20208;-82
2023/03/21 01:18:00;;;;;;;15.17;13.87;;;;;;;8.27;98.58;100465.09;4996802;28;20270;-80
2023/03/21 01:20:26;;;;;;;14.73;13.43;;;;;;;8.24;99.11;100468.56;4993923;28;20364;-80
2023/03/21 01:22:52;;;;;;;14.73;13.47;;;;;;;8.20;99.19;100460.81;4980493;28;20636;-80
2023/03/21 01:25:19;;;;;;;15.27;13.93;;;;;;;8.23;99.65;100443.47;4974196;28;20235;-79
2023/03/21 01:27:47;;;;;;;14.40;13.20;;;;;;;8.25;99.98;100443.47;4973877;28;20710;-81
2023/03/21 01:30:13;;;;;;;14.60;13.40;;;;;;;8.37;99.49;100451.13;4973743;28;20256;-79
2023/03/21 01:32:39;;;;;;;14.27;13.07;;;;;;;8.44;99.01;100460.63;4973969;28;20680;-80
2023/03/21 01:35:06;;;;;;;14.30;13.07;;;;;;;8.50;98.33;100473.59;4974003;28;20267;-79
2023/03/21 01:37:33;;;;;;;14.17;12.97;;;;;;;8.53;98.34;100486.56;4974154;28;20256;-79
2023/03/21 01:39:59;;;;;;;16.40;13.33;;;;;;;8.54;98.48;100479.59;4973754;28;20715;-79
2023/03/21 01:42:26;;;;;;;14.93;13.67;;;;;;;8.48;98.11;100477.06;4973608;28;20212;-79
2023/03/21 01:44:56;;;;;;;15.10;13.67;;;;;;;8.50;98.53;100475.31;4973590;28;20731;-79
2023/03/21 01:47:23;;;;;;;16.70;13.77;;;;;;;8.55;97.89;100490.00;4974038;28;20208;-79
2023/03/21 01:49:52;;;;;;;15.33;13.80;;;;;;;8.54;98.41;100479.59;4973690;28;20225;-79
2023/03/21 01:52:22;;;;;;;15.00;13.60;;;;;;;8.62;98.07;100482.13;4973899;28;20245;-79
2023/03/21 01:54:50;;;;;;;15.03;13.50;;;;;;;8.61;97.99;100489.09;4982645;28;20205;-79
2023/03/21 01:57:22;;;;;;;16.17;14.50;;;;;;;8.35;99.31;100471.94;4978624;28;20212;-79
2023/03/21 01:59:50;;;;;;;15.03;13.33;;;;;;;8.38;99.78;100457.19;4973734;28;20264;-80
2023/03/21 02:02:22;;;;;;;15.60;13.67;;;;;;;8.29;100.00;100438.19;4973687;28;20235;-79
2023/03/21 02:04:54;;;;;;;16.47;14.00;;;;;;;8.31;100.00;100426.03;4992004;28;20207;-79
2023/03/21 02:07:27;;;;;;;20.67;13.60;;;;;;;8.39;100.00;100425.13;4992982;28;20744;-79
2023/03/21 02:09:55;;;;;;;16.63;14.77;;;;;;;8.28;100.00;100420.84;4992687;28;20204;-79
2023/03/21 02:12:21;;;;;;;15.70;13.97;;;;;;;8.30;100.00;100410.44;4992593;28;20235;-79
2023/03/21 02:14:49;;;;;;;15.00;13.60;;;;;;;8.37;100.00;100406.91;4977336;28;20652;-79
2023/03/21 02:17:25;;;;;;;15.83;14.17;;;;;;;8.47;100.00;100408.56;4973660;28;20590;-79
2023/03/21 02:20:26;;;;;;;15.50;14.13;;;;;;;8.54;100.00;100412.84;4973420;28;20236;-79
2023/03/21 02:23:27;;;;;;;14.80;13.50;;;;;;;8.54;100.00;100420.66;4973473;28;20235;-78
2023/03/21 02:26:44;;;;;;;14.67;13.23;;;;;;;8.52;100.00;100418.91;4970859;28;20242;-79
2023/03/21 02:29:30;;;;;;;16.33;14.23;;;;;;;8.52;100.00;100421.53;4948705;28;20229;-79
2023/03/21 02:32:08;;;;;;;15.87;14.03;;;;;;;8.62;99.69;100425.78;4973306;28;20324;-79
2023/03/21 02:34:55;;;;;;;16.33;13.93;;;;;;;8.67;99.56;100433.50;4973285;28;20209;-80
2023/03/21 02:37:25;;;;;;;16.23;14.47;;;;;;;8.50;99.85;100439.78;4973551;28;20274;-79
2023/03/21 02:40:08;;;;;;;15.73;14.40;;;;;;;8.56;99.43;100446.63;4973242;28;20232;-79
2023/03/21 02:42:44;;;;;;;15.23;13.73;;;;;;;8.65;99.03;100451.75;4977851;28;20211;-81
2023/03/21 02:45:16;;;;;;;15.73;14.20;;;;;;;8.61;99.41;100450.06;4992566;28;20208;-81
2023/03/21 02:47:47;;;;;;;15.20;13.73;;;;;;;8.65;98.86;100453.50;4992690;28;20242;-79
2023/03/21 02:50:18;;;;;;;16.07;14.47;;;;;;;8.64;99.62;100441.34;4992743;28;20223;-79
2023/03/21 02:52:48;;;;;;;15.53;14.23;;;;;;;8.58;99.31;100439.66;4992805;28;20641;-78
2023/03/21 02:55:17;;;;;;;15.40;13.73;;;;;;;8.70;98.93;100452.56;4992600;28;20207;-79
2023/03/21 02:57:46;;;;;;;16.00;14.47;;;;;;;8.72;98.39;100461.22;4990925;28;20585;-79
2023/03/21 03:00:18;;;;;;;16.27;14.87;;;;;;;8.70;98.29;100455.16;4991172;28;20252;-79
2023/03/21 03:02:45;;;;;;;17.50;14.27;;;;;;;8.79;98.33;100458.53;4996265;28;20245;-79
2023/03/21 03:05:15;;;;;;;14.70;13.20;;;;;;;8.82;97.93;100469.78;4996338;28;20210;-80
2023/03/21 03:07:56;;;;;;;15.40;13.97;;;;;;;8.81;98.60;100464.59;4996008;28;20208;-79
2023/03/21 03:10:46;;;;;;;16.53;14.67;;;;;;;8.71;98.19;100459.47;5037739;22;20240;-79
2023/03/21 03:13:27;;;;;;;17.70;14.63;;;;;;;8.79;98.40;100453.34;4994324;28;20625;-82
2023/03/21 03:16:04;;;;;;;15.33;14.03;;;;;;;8.70;99.02;100452.56;4995077;28;20239;-80
2023/03/21 03:18:40;;;;;;;16.33;14.50;;;;;;;8.67;99.05;100449.97;4995342;28;20230;-80
2023/03/21 03:21:14;;;;;;;15.57;14.17;;;;;;;8.50;99.25;100444.97;4986075;28;20278;-81
2023/03/21 03:23:46;;;;;;;18.20;15.20;;;;;;;8.65;99.22;100425.72;4975661;28;20236;-80
2023/03/21 03:26:17;;;;;;;18.23;14.30;;;;;;;8.45;100.00;100419.88;4984276;28;20232;-81
2023/03/21 03:28:49;;;;;;;17.33;15.50;;;;;;;8.42;100.00;100409.50;4994884;28;20204;-80
2023/03/21 03:31:20;;;;;;;16.67;15.20;;;;;;;8.45;100.00;100402.53;4994766;28;20804;-80
2023/03/21 03:33:50;;;;;;;17.13;14.83;;;;;;;8.42;100.00;100399.09;4995045;28;20211;-81
2023/03/21 03:36:18;;;;;;;15.13;13.63;;;;;;;8.37;100.00;100393.06;4995303;28;20215;-81
2023/03/21 03:38:48;;;;;;;18.97;14.50;;;;;;;8.36;100.00;100381.78;4994792;28;20584;-80
2023/03/21 03:41:21;;;;;;;16.53;14.90;;;;;;;8.54;100.00;100380.75;4994898;28;20279;-80
2023/03/21 03:43:53;;;;;;;15.13;13.73;;;;;;;8.64;100.00;100378.91;5004845;28;20199;-80
2023/03/21 03:46:26;;;;;;;16.37;14.87;;;;;;;8.63;100.00;100362.44;5014518;28;20297;-80
2023/03/21 03:48:56;;;;;;;16.87;14.10;;;;;;;8.51;100.00;100357.38;5014542;28;20236;-79
2023/03/21 03:51:27;;;;;;;14.70;13.13;;;;;;;8.52;100.00;100348.69;5014448;28;20237;-81
2023/03/21 03:53:59;;;;;;;18.10;15.20;;;;;;;8.37;100.00;100320.25;5014412;28;20231;-80
2023/03/21 03:56:27;;;;;;;16.40;14.87;;;;;;;8.37;100.00;100312.44;5014087;28;20214;-80
2023/03/21 03:58:53;;;;;;;17.70;15.17;;;;;;;8.31;100.00;100301.22;5014465;28;20232;-80
2023/03/21 04:01:20;;;;;;;15.73;14.33;;;;;;;8.37;100.00;100297.69;5002064;28;20255;-80
2023/03/21 04:03:48;;;;;;;17.77;15.93;;;;;;;8.32;100.00;100294.28;4994575;28;20211;-79
2023/03/21 04:06:15;;;;;;;18.83;15.77;;;;;;;8.32;100.00;100283.88;4994475;28;20239;-80
2023/03/21 04:08:41;;;;;;;17.90;16.00;;;;;;;8.38;100.00;100277.72;4994619;28;20294;-80
2023/03/21 04:11:10;;;;;;;16.87;15.47;;;;;;;8.32;100.00;100278.66;4994417;28;20266;-81
2023/03/21 04:13:36;;;;;;;19.77;16.23;;;;;;;8.34;100.00;100277.78;4993566;28;20651;-80
2023/03/21 04:16:03;;;;;;;18.47;15.83;;;;;;;8.32;100.00;100283.88;4994518;28;20243;-80
2023/03/21 04:18:31;;;;;;;18.87;16.47;;;;;;;8.30;100.00;100283.03;4995440;28;20211;-80
2023/03/21 04:20:57;;;;;;;19.47;17.27;;;;;;;8.30;100.00;100280.44;5008082;28;20223;-80
2023/03/21 04:23:23;;;;;;;18.63;16.67;;;;;;;8.35;100.00;100286.44;5013505;28;20242;-79
2023/03/21 04:25:50;;;;;;;23.03;16.50;;;;;;;8.36;100.00;100290.75;5014094;28;20579;-80
2023/03/21 04:28:20;;;;;;;18.20;16.50;;;;;;;8.41;100.00;100291.59;5014012;28;20241;-81
2023/03/21 04:30:49;;;;;;;18.63;16.23;;;;;;;8.44;100.00;100303.69;5013687;28;20223;-81
2023/03/21 04:33:16;;;;;;;20.63;16.30;;;;;;;8.44;100.00;100303.69;5013641;28;20213;-80
2023/03/21 04:35:44;;;;;;;18.60;16.63;;;;;;;8.50;100.00;100311.41;5006665;28;20242;-79
2023/03/21 04:38:11;;;;;;;19.27;17.10;;;;;;;8.49;100.00;100315.78;4994223;28;20243;-80
2023/03/21 04:40:38;;;;;;;17.93;16.23;;;;;;;8.49;100.00;100331.38;4993993;28;20289;-80
2023/03/21 04:43:04;;;;;;;23.00;17.53;;;;;;;8.47;100.00;100321.88;4993869;28;20243;-79
2023/03/21 04:45:32;;;;;;;16.43;14.97;;;;;;;8.45;100.00;100319.28;4993748;28;20285;-79
2023/03/21 04:47:58;;;;;;;17.30;15.67;;;;;;;8.48;100.00;100320.97;4993758;28;20242;-79
2023/03/21 04:50:24;;;;;;;22.37;16.80;;;;;;;8.44;100.00;100319.31;4993393;28;20232;-80
2023/03/21 04:52:51;;;;;;;22.17;17.17;;;;;;;8.36;100.00;100316.75;4997462;28;20230;-79
2023/03/21 04:55:20;;;;;;;22.63;17.63;;;;;;;8.47;100.00;100317.53;5012979;28;20207;-78
2023/03/21 04:57:47;;;;;;;19.33;17.53;;;;;;;8.52;100.00;100320.06;4993762;28;20230;-80
2023/03/21 05:00:14;;;;;;;19.30;17.50;;;;;;;8.62;100.00;100332.09;4993515;28;20271;-79
2023/03/21 05:02:42;;;;;;;19.03;17.43;;;;;;;8.33;100.00;100350.63;4993420;28;20208;-79
2023/03/21 05:05:10;;;;;;;20.53;16.73;;;;;;;8.40;100.00;100330.59;4993472;28;20689;-79
2023/03/21 05:07:37;;;;;;;18.73;16.90;;;;;;;8.48;100.00;100326.19;4993565;28;20214;-79
2023/03/21 05:10:05;;;;;;;20.40;17.50;;;;;;;8.51;100.00;100337.41;4995482;28;20231;-79
2023/03/21 05:12:31;;;;;;;19.53;17.57;;;;;;;8.62;100.00;100345.13;5012862;28;20204;-80
2023/03/21 05:14:58;;;;;;;19.40;17.53;;;;;;;8.65;100.00;100357.22;5012730;28;20265;-80
2023/03/21 05:17:27;;;;;;;17.90;16.30;;;;;;;8.69;100.00;100364.94;5012882;28;20675;-80
2023/03/21 05:19:56;;;;;;;21.57;17.20;;;;;;;8.73;100.00;100377.03;5012788;28;20230;-79
2023/03/21 05:22:25;;;;;;;22.83;17.50;;;;;;;8.81;100.00;100389.13;5012826;28;20234;-81
2023/03/21 05:24:54;;;;;;;19.33;17.10;;;;;;;8.79;100.00;100398.69;5012617;28;20620;-79
2023/03/21 05:27:33;;;;;;;17.33;15.60;;;;;;;8.82;100.00;100404.72;5012161;28;20210;-79
2023/03/21 05:30:00;;;;;;;17.70;16.00;;;;;;;8.89;100.00;100416.75;5012828;28;20238;-79
2023/03/21 05:32:27;;;;;;;22.73;17.87;;;;;;;8.79;100.00;100422.97;5012545;28;20209;-79
2023/03/21 05:34:55;;;;;;;18.83;16.47;;;;;;;8.82;100.00;100430.75;5013206;28;20646;-79
2023/03/21 05:37:21;;;;;;;18.00;16.17;;;;;;;8.87;100.00;100439.34;5012835;28;20594;-79
2023/03/21 05:39:48;;;;;;;18.37;16.40;;;;;;;8.94;100.00;100442.75;5013007;28;20233;-80
2023/03/21 05:42:15;;;;;;;18.50;16.70;;;;;;;8.84;100.00;100446.31;5012649;28;20255;-78
2023/03/21 05:44:41;;;;;;;18.00;15.63;;;;;;;8.92;99.89;100450.56;5011765;28;20281;-79
2023/03/21 05:47:07;;;;;;;17.93;16.10;;;;;;;9.02;99.09;100458.25;5012680;28;20252;-79
2023/03/21 05:49:34;;;;;;;18.50;15.10;;;;;;;9.05;98.84;100460.84;5012775;28;20203;-79
2023/03/21 05:52:01;;;;;;;19.67;16.43;;;;;;;9.06;99.27;100462.56;5012819;28;20265;-79
2023/03/21 05:54:28;;;;;;;18.03;15.83;;;;;;;9.11;98.17;100471.16;5012510;28;20706;-79
2023/03/21 05:56:54;;;;;;;16.30;14.57;;;;;;;9.14;97.96;100484.16;5012481;28;20240;-80
2023/03/21 05:59:21;;;;;;;17.20;15.60;;;;;;;9.06;98.74;100465.19;5012353;28;20215;-79
2023/03/21 06:01:47;;;;;;;18.60;16.60;;;;;;;9.12;99.12;100460.75;5012344;28;20249;-82
2023/03/21 06:04:14;;;;;;;17.10;15.40;;;;;;;9.13;98.87;100462.44;4998472;28;20238;-82
2023/03/21 06:06:40;;;;;;;17.40;15.70;;;;;;;9.24;98.35;100470.13;4998265;28;20211;-82
2023/03/21 06:09:08;;;;;;;16.77;15.03;;;;;;;9.13;97.94;100485.88;4998338;28;20211;-82
2023/03/21 06:11:37;;;;;;;15.40;13.90;;;;;;;9.16;97.73;100485.00;4998062;28;20234;-82
2023/03/21 06:14:03;;;;;;;18.03;15.50;;;;;;;9.19;97.60;100494.50;4997643;28;20230;-82
2023/03/21 06:16:30;;;;;;;15.93;14.03;;;;;;;9.16;96.40;100511.06;4997988;28;20210;-82
2023/03/21 06:18:56;;;;;;;16.23;14.10;;;;;;;8.98;96.11;100532.06;5000367;28;20664;-82
2023/03/21 06:21:23;;;;;;;16.33;14.40;;;;;;;9.03;97.08;100518.13;4998980;28;20234;-81
2023/03/21 06:23:50;;;;;;;19.10;14.43;;;;;;;9.13;97.20;100522.34;4998424;28;20241;-82
2023/03/21 06:26:21;;;;;;;16.83;13.97;;;;;;;9.14;97.02;100515.41;4998080;28;20209;-82
2023/03/21 06:28:48;;;;;;;14.63;13.33;;;;;;;9.20;96.60;100522.28;4998449;28;20200;-82
2023/03/21 06:31:14;;;;;;;16.67;13.40;;;;;;;9.18;96.11;100530.13;4998120;28;20298;-82
2023/03/21 06:33:41;;;;;;;14.57;13.20;;;;;;;9.28;96.17;100529.13;4998705;28;20237;-81
2023/03/21 06:36:08;;;;;;;17.37;12.23;;;;;;;9.29;95.39;100548.22;5000189;28;20238;-82
2023/03/21 06:38:36;;;;;;;16.00;14.50;;;;;;;9.27;95.54;100539.56;5021293;28;20221;-81
2023/03/21 06:41:03;;;;;;;17.27;14.73;;;;;;;9.33;95.09;100542.94;5016126;28;20298;-79
2023/03/21 06:43:31;;;;;;;16.87;12.73;;;;;;;9.34;94.64;100555.09;5015956;28;20215;-80
2023/03/21 06:45:58;;;;;;;16.23;12.70;;;;;;;9.35;93.96;100561.16;5015980;28;20596;-80
2023/03/21 06:48:24;;;;;;;14.07;12.57;;;;;;;9.34;94.04;100575.09;5015979;28;20244;-80
2023/03/21 06:50:51;;;;;;;14.50;13.03;;;;;;;9.21;93.23;100587.38;5015768;28;20289;-79
2023/03/21 06:53:19;;;;;;;16.07;12.17;;;;;;;9.11;93.85;100586.59;5015663;28;20237;-79
2023/03/21 06:55:49;;;;;;;15.77;12.60;;;;;;;9.11;94.85;100575.31;4997017;28;20210;-80
2023/03/21 06:58:15;;;;;;;18.23;12.53;;;;;;;9.10;94.66;100569.25;4996130;28;20264;-80
2023/03/21 07:00:43;;;;;;;16.23;12.13;;;;;;;9.05;96.08;100560.63;4996045;28;20260;-80
2023/03/21 07:03:10;;;;;;;19.67;13.43;;;;;;;9.17;96.27;100530.13;4995928;28;20212;-81
2023/03/21 07:05:36;;;;;;;15.20;12.20;;;;;;;9.10;94.45;100551.03;4995912;28;20223;-80
2023/03/21 07:08:04;;;;;;;16.90;12.90;;;;;;;9.24;94.36;100563.06;4995987;28;20247;-79
2023/03/21 07:10:30;;;;;;;21.13;12.57;;;;;;;9.31;94.75;100554.25;4995785;28;20242;-80
2023/03/21 07:12:59;;;;;;;17.33;12.70;;;;;;;9.23;94.11;100571.72;4996786;28;20205;-79
2023/03/21 07:15:25;;;;;;;14.53;12.37;;;;;;;9.16;93.70;100576.16;4995843;28;20691;-78
2023/03/21 07:17:53;;;;;;;14.23;12.67;;;;;;;9.23;94.25;100563.91;4996637;28;20204;-78
2023/03/21 07:20:19;;;;;;;14.10;11.93;;;;;;;9.33;94.53;100560.31;4996260;28;20263;-79
2023/03/21 07:22:46;;;;;;;14.10;12.07;;;;;;;9.36;93.58;100569.88;4996315;28;20208;-80
2023/03/21 07:25:12;;;;;;;16.80;12.37;;;;;;;9.39;92.61;100586.28;4996358;28;20302;-80
2023/03/21 07:27:39;;;;;;;20.30;12.83;;;;;;;9.38;92.25;100604.56;4996053;28;20238;-80
2023/03/21 07:30:06;;;;;;;14.10;11.63;;;;;;;9.33;92.34;100608.06;5006170;28;20712;-79
2023/03/21 07:32:33;;;;;;;17.13;11.80;;;;;;;9.43;92.48;100616.63;5015841;28;20203;-82
2023/03/21 07:35:01;;;;;;;14.87;11.53;;;;;;;9.39;91.53;100625.38;5015596;28;20211;-82
2023/03/21 07:37:27;;;;;;;12.43;11.27;;;;;;;9.37;91.55;100623.69;5015814;28;20260;-82
2023/03/21 07:39:53;;;;;;;12.90;11.50;;;;;;;9.47;92.07;100623.53;5015624;28;20214;-79
2023/03/21 07:42:20;;;;;;;13.57;11.13;;;;;;;9.33;91.49;100621.09;5015971;28;20773;-80
2023/03/21 07:44:46;;;;;;;15.30;13.27;;;;;;;9.40;91.19;100624.50;5015234;28;20210;-79
2023/03/21 07:47:12;;;;;;;15.60;12.13;;;;;;;9.46;91.01;100634.84;5014591;28;20227;-79
2023/03/21 07:49:39;;;;;;;14.70;11.27;;;;;;;9.59;91.94;100619.94;5015552;28;20718;-79
2023/03/21 07:52:06;;;;;;;15.63;10.90;;;;;;;9.45;90.10;100624.44;5015592;28;20288;-79
2023/03/21 07:54:33;;;;;;;14.07;11.23;;;;;;;9.56;90.26;100640.81;5015963;28;20233;-79
2023/03/21 07:57:00;;;;;;;13.73;12.23;;;;;;;9.47;90.82;100627.91;5015519;28;20199;-79
2023/03/21 07:59:26;;;;;;;12.17;11.07;;;;;;;9.45;91.30;100629.66;5015505;28;20218;-82
2023/03/21 08:01:53;;;;;;;12.60;10.20;;;;;;;9.50;90.22;100630.47;5015324;28;20251;-80
2023/03/21 08:04:20;;;;;;;11.10;10.00;;;;;;;9.58;90.11;100643.44;5014022;28;20242;-82
2023/03/21 08:06:46;;;;;;;11.80;10.47;;;;;;;9.54;89.77;100658.22;5004137;28;20197;-81
2023/03/21 08:09:14;;;;;;;14.53;11.17;;;;;;;9.68;90.33;100642.44;4995626;28;20254;-81
2023/03/21 08:11:40;;;;;;;14.03;9.80;;;;;;;9.71;89.26;100655.41;4995860;28;20238;-80
2023/03/21 08:14:07;;;;;;;15.77;10.03;;;;;;;9.70;89.28;100666.72;4995501;28;20210;-80
2023/03/21 08:16:33;;;;;;;11.63;10.20;;;;;;;9.64;88.67;100688.50;4995920;28;20247;-81
2023/03/21 08:18:59;;;;;;;11.40;10.30;;;;;;;9.72;89.33;100678.00;4995518;28;20234;-83
2023/03/21 08:21:26;;;;;;;14.47;10.00;;;;;;;9.73;89.23;100680.59;4996496;28;20220;-83
2023/03/21 08:23:53;;;;;;;13.17;10.53;;;;;;;9.70;89.18;100671.94;4995319;28;20629;-83
2023/03/21 08:26:24;;;;;;;12.70;10.27;;;;;;;9.88;89.26;100676.06;4995271;28;20240;-80
2023/03/21 08:28:50;;;;;;;12.47;10.73;;;;;;;9.96;88.88;100676.84;4995263;28;20206;-80
2023/03/21 08:31:17;;;;;;;15.33;11.33;;;;;;;10.07;88.14;100685.41;4995446;28;20664;-80
2023/03/21 08:33:43;;;;;;;13.47;11.30;;;;;;;10.07;87.17;100706.25;4995472;28;20248;-80
2023/03/21 08:36:10;;;;;;;12.17;10.73;;;;;;;10.13;87.61;100715.75;4995167;28;20590;-79
2023/03/21 08:38:37;;;;;;;15.83;11.87;;;;;;;10.19;87.76;100714.78;4995468;28;20254;-80
2023/03/21 08:41:03;;;;;;;14.97;11.33;;;;;;;10.35;88.06;100698.09;5012899;28;20272;-79
2023/03/21 08:43:31;;;;;;;15.93;11.43;;;;;;;10.13;86.60;100719.22;5014678;28;20199;-80
2023/03/21 08:45:58;;;;;;;16.87;10.83;;;;;;;10.11;87.03;100727.97;5014759;28;20334;-80
2023/03/21 08:48:24;;;;;;;11.90;10.30;;;;;;;10.27;87.52;100712.97;5015203;28;20208;-80
2023/03/21 08:50:50;;;;;;;14.50;11.33;;;;;;;10.25;87.26;100717.34;5015235;28;20668;-80
2023/03/21 08:53:17;;;;;;;13.27;10.60;;;;;;;10.33;87.29;100699.88;5015363;28;20264;-80
2023/03/21 08:55:43;;;;;;;17.23;12.60;;;;;;;10.34;86.57;100725.06;5015190;28;20270;-79
2023/03/21 08:58:10;;;;;;;14.17;10.93;;;;;;;10.40;86.98;100731.97;5012863;28;20226;-80
2023/03/21 09:00:37;;;;;;;12.00;10.60;;;;;;;10.38;86.49;100733.72;5015685;28;20260;-80
2023/03/21 09:03:04;;;;;;;11.27;10.10;;;;;;;10.27;86.35;100747.75;5015122;28;20624;-81
2023/03/21 09:05:30;;;;;;;14.50;10.93;;;;;;;10.37;87.02;100716.34;5016074;28;20258;-82
2023/03/21 09:07:57;;;;;;;13.27;11.00;;;;;;;10.52;87.05;100700.47;5014689;28;20195;-82
2023/03/21 09:10:23;;;;;;;12.37;10.37;;;;;;;10.58;85.84;100718.63;5014603;28;20268;-82
2023/03/21 09:12:51;;;;;;;15.53;10.57;;;;;;;10.50;85.84;100738.78;5016011;28;20188;-80
2023/03/21 09:15:20;;;;;;;11.30;10.10;;;;;;;10.60;85.26;100732.53;5000910;28;20632;-79
2023/03/21 09:17:48;;;;;;;11.77;9.53;;;;;;;10.65;85.46;100740.31;4995241;28;20687;-81
2023/03/21 09:20:17;;;;;;;12.73;10.03;;;;;;;10.73;84.59;100744.53;4995655;28;20257;-80
2023/03/21 09:22:44;;;;;;;12.23;10.03;;;;;;;10.95;86.31;100725.94;4995124;28;20234;-81
2023/03/21 09:25:12;;;;;;;14.20;10.00;;;;;;;10.75;83.15;100765.41;4995366;28;20206;-79
2023/03/21 09:27:39;;;;;;;12.63;10.40;;;;;;;11.00;83.29;100781.59;4996738;28;20269;-80
2023/03/21 09:30:08;;;;;;;10.90;9.27;;;;;;;11.03;83.54;100786.75;5007591;28;20216;-80
2023/03/21 09:32:35;;;;;;;13.73;10.07;;;;;;;10.97;83.46;100799.03;5009599;28;20229;-80
2023/03/21 09:35:04;;;;;;;12.00;9.83;;;;;;;10.93;82.40;100814.75;5008674;28;20231;-79
2023/03/21 09:37:31;;;;;;;13.20;10.00;;;;;;;10.97;82.00;100827.78;5009006;28;20209;-80
2023/03/21 09:39:58;;;;;;;11.67;9.17;;;;;;;11.00;82.60;100818.16;5008612;28;20226;-80
2023/03/21 09:42:34;;;;;;;10.27;8.83;;;;;;;11.12;83.09;100804.91;5007986;28;20235;-80
2023/03/21 09:45:10;;;;;;;16.77;9.73;;;;;;;11.28;83.56;100784.63;5009380;28;20276;-80
2023/03/21 09:47:48;;;;;;;9.97;8.90;;;;;;;11.45;83.07;100780.84;5010806;28;20206;-81
2023/03/21 09:50:20;;;;;;;14.80;10.07;;;;;;;11.53;82.83;100794.66;5010261;28;20196;-80
2023/03/21 09:52:51;;;;;;;10.80;8.77;;;;;;;11.66;81.29;100809.25;5008214;28;20205;-80
2023/03/21 09:55:21;;;;;;;13.47;9.13;;;;;;;11.70;79.70;100850.13;5009180;28;20213;-80
2023/03/21 09:57:50;;;;;;;12.00;9.43;;;;;;;11.91;80.81;100851.56;5009590;28;20240;-82
2023/03/21 10:00:24;;;;;;;12.73;10.17;;;;;;;11.78;77.94;100876.16;5008613;28;20214;-80
2023/03/21 10:02:52;;;;;;;10.77;9.77;;;;;;;11.79;77.50;100927.56;5007661;28;20219;-79
2023/03/21 10:05:23;;;;;;;12.53;9.40;;;;;;;11.93;79.11;100916.91;5002149;28;20273;-82
2023/03/21 10:07:54;;;;;;;10.73;8.90;;;;;;;12.01;79.03;100901.09;4999998;28;20208;-81
2023/03/21 10:10:27;;;;;;;11.70;8.50;;;;;;;11.86;79.04;100929.22;4998791;28;20193;-82
2023/03/21 10:12:55;;;;;;;13.07;9.10;;;;;;;11.80;78.46;100925.84;5001961;28;20206;-81
2023/03/21 10:15:25;;;;;;;12.27;9.37;;;;;;;11.76;77.99;100934.63;5002189;28;20205;-82
2023/03/21 10:17:56;;;;;;;10.30;9.20;;;;;;;11.67;77.92;100941.75;5000999;28;20209;-82
2023/03/21 10:20:26;;;;;;;10.83;9.77;;;;;;;11.58;77.76;100936.63;5001415;28;20232;-83
2023/03/21 10:22:54;;;;;;;11.03;8.83;;;;;;;11.63;78.10;100939.16;5001247;28;20735;-82
2023/03/21 10:25:24;;;;;;;10.90;9.73;;;;;;;11.67;78.31;100906.84;5017030;28;20205;-81
2023/03/21 10:27:52;;;;;;;13.17;9.60;;;;;;;11.31;78.78;100930.91;5020782;28;20209;-82
2023/03/21 10:30:29;;;;;;;12.70;9.27;;;;;;;11.42;79.52;100898.56;5019127;28;20266;-82
2023/03/21 10:33:01;;;;;;;9.40;8.43;;;;;;;11.48;79.78;100867.09;5000197;28;20621;-81
2023/03/21 10:35:30;;;;;;;13.57;9.00;;;;;;;11.60;80.91;100837.25;5000197;28;20750;-79
2023/03/21 10:37:56;;;;;;;12.40;8.63;;;;;;;11.64;80.95;100826.72;5000079;28;20204;-83
2023/03/21 10:40:23;;;;;;;13.10;8.47;;;;;;;11.65;83.30;100780.50;4999808;28;20735;-82
2023/03/21 10:42:49;;;;;;;8.80;7.97;;;;;;;11.67;84.04;100737.75;5001351;28;20262;-84
2023/03/21 10:45:18;;;;;;;10.50;8.83;;;;;;;11.60;84.16;100717.00;4999569;28;20588;-82
2023/03/21 10:47:47;;;;;;;9.97;8.90;;;;;;;11.57;84.31;100704.81;5000056;28;20272;-82
2023/03/21 10:50:16;;;;;;;9.87;8.37;;;;;;;11.65;85.05;100679.38;5000013;28;20208;-82
2023/03/21 10:52:47;;;;;;;13.17;10.60;;;;;;;11.63;85.07;100665.47;5000077;28;20214;-84
2023/03/21 10:55:25;;;;;;;10.43;8.67;;;;;;;11.77;85.39;100651.28;4999445;28;20708;-82
2023/03/21 10:57:59;;;;;;;10.67;8.13;;;;;;;11.82;84.62;100663.38;4999752;28;20263;-83
2023/03/21 11:00:28;;;;;;;10.50;9.30;;;;;;;11.84;84.69;100664.19;5015144;28;20225;-82
2023/03/21 11:02:56;;;;;;;9.77;8.47;;;;;;;11.79;84.22;100675.63;5018842;28;20229;-81
2023/03/21 11:05:26;;;;;;;10.37;8.77;;;;;;;11.89;84.93;100662.38;5019109;28;20204;-82
2023/03/21 11:08:03;;;;;;;9.60;8.70;;;;;;;11.83;84.46;100666.84;5018793;28;20268;-81
2023/03/21 11:10:32;;;;;;;9.03;8.13;;;;;;;11.71;85.72;100639.19;5016845;28;20232;-83
2023/03/21 11:13:05;;;;;;;10.43;8.40;;;;;;;11.36;85.72;100642.47;5018382;28;20205;-81
2023/03/21 11:15:37;;;;;;;9.50;8.47;;;;;;;11.56;87.83;100601.16;5017906;28;20237;-82
2023/03/21 11:18:17;;;;;;;10.60;9.60;;;;;;;11.67;88.97;100565.19;4998763;28;20220;-81
2023/03/21 11:20:49;;;;;;;9.20;8.10;;;;;;;11.70;89.97;100523.25;4997884;28;20667;-82
2023/03/21 11:23:17;;;;;;;9.20;7.60;;;;;;;11.60;88.25;100547.03;4998388;28;20265;-82